Celebrity Mercury — 9HJG9 — position and weather

sailwx.info

Track history (hours):
 
Tides and Currents Weather Stations Pressure Air Temp Water Temp Dewpoint Dewpoint Depression Visibility Wind Speed Wind Dir Waves Ship Positions

Celebrity Mercury

Last reported at 2018-Jun-18 06:16 UTC. Time now 2018-Jun-22 07:42 UTC.
Position N 44°09' E 013°59'.

Length 264 m; draft 8.5 m.

Type: Ship. MMSI: 249053000.

Date/timePositionNaut miles runAvg speedWind from/ knotsBaromVisibWave heightAir tempDewpointWater temp
2018-Jun-18 06:16N 44°09' E 013°59'513.1
2018-Jun-18 05:55N 44°13' E 013°56'2413.2
2018-Jun-18 04:04N 44°34' E 013°37'313.6
2018-Jun-18 03:52N 44°36' E 013°35'513.5
2018-Jun-18 03:30N 44°40' E 013°31'713.5
2018-Jun-18 03:00N 44°46' E 013°26'713.5
2018-Jun-18 02:30N 44°51' E 013°21'713.5
2018-Jun-18 02:00N 44°57' E 013°15'713.5
2018-Jun-18 01:30N 45°02' E 013°10'713.3
2018-Jun-18 01:00N 45°08' E 013°04'713.3
2018-Jun-18 00:30N 45°14' E 013°02'713.1
2018-Jun-18 00:00N 45°20' E 012°60'611.7
2018-Jun-17 23:30N 45°26' E 013°04'713.0
2018-Jun-17 23:00N 45°30' E 013°11'713.0
2018-Jun-17 22:30N 45°34' E 013°18'712.9
2018-Jun-17 22:00N 45°36' E 013°27'612.5
2018-Jun-17 21:30N 45°38' E 013°35'612.0
2018-Jun-17 21:00N 45°39' E 013°44'2 0.9
2018-Jun-17 19:15N 45°39' E 013°46'0 0.0
2018-Jun-17 18:51N 45°39' E 013°46'0 0.0
2018-Jun-17 18:27N 45°39' E 013°46'0 0.0
2018-Jun-17 18:00N 45°39' E 013°46'0 0.0
2018-Jun-17 17:30N 45°39' E 013°46'0 0.0
2018-Jun-17 02:41N 45°39' E 013°46'0 0.0
2018-Jun-17 02:29N 45°39' E 013°46'0 0.1
2018-Jun-17 02:00N 45°39' E 013°46'2 4.7
2018-Jun-17 01:30N 45°39' E 013°43'713.9
2018-Jun-17 01:01N 45°36' E 013°34'917.4
2018-Jun-17 00:30N 45°31' E 013°23'917.4
2018-Jun-17 00:01N 45°25' E 013°14'816.0
2018-Jun-16 23:31N 45°17' E 013°11'918.1
2018-Jun-16 23:01N 45°09' E 013°15'918.4
2018-Jun-16 22:31N 45°02' E 013°23'918.2
2018-Jun-16 22:00N 44°54' E 013°32'918.1
2018-Jun-16 21:31N 44°48' E 013°40'917.9
2018-Jun-16 21:01N 44°41' E 013°48'917.7
2018-Jun-16 20:31N 44°35' E 013°57'918.0
2018-Jun-16 20:00N 44°29' E 014°07'  
2018-Jun-11 07:54N 43°33' E 014°43'1717.3
2018-Jun-11 06:54N 43°46' E 014°27'716.3
2018-Jun-11 06:28N 43°51' E 014°21'816.1
2018-Jun-11 06:00N 43°57' E 014°14'816.0
2018-Jun-11 05:30N 44°03' E 014°06'816.2
2018-Jun-11 05:00N 44°09' E 013°59'816.3
2018-Jun-11 04:30N 44°16' E 013°52'816.2
2018-Jun-11 04:00N 44°22' E 013°46'816.2
2018-Jun-11 03:30N 44°29' E 013°39'816.1
2018-Jun-11 03:00N 44°36' E 013°34'816.2
2018-Jun-11 02:30N 44°43' E 013°27'815.7
2018-Jun-11 02:00N 44°50' E 013°23'816.1
2018-Jun-11 01:30N 44°56' E 013°16'816.2
2018-Jun-11 01:00N 45°03' E 013°09'816.0
2018-Jun-11 00:30N 45°10' E 013°03'816.1
2018-Jun-11 00:00N 45°17' E 013°00'714.6
2018-Jun-10 23:30N 45°25' E 013°01'815.5
2018-Jun-10 23:00N 45°29' E 013°10'815.4
2018-Jun-10 22:30N 45°34' E 013°19'815.7
2018-Jun-10 22:00N 45°37' E 013°29'815.7
2018-Jun-10 21:30N 45°39' E 013°40'4 8.3
2018-Jun-10 21:00N 45°39' E 013°46'0 0.0
2018-Jun-09 23:53N 45°39' E 013°46'0 0.0
2018-Jun-09 23:29N 45°39' E 013°46'0 0.0
2018-Jun-09 23:00N 45°39' E 013°46'1 1.9
2018-Jun-09 22:30N 45°39' E 013°45'4 7.8
2018-Jun-09 22:00N 45°39' E 013°39'5 9.7
2018-Jun-09 21:30N 45°34' E 013°41'2 0.1
2018-Jun-09 07:38N 45°33' E 013°44'0 0.0
2018-Jun-09 07:26N 45°33' E 013°44'0 0.0
2018-Jun-09 06:56N 45°33' E 013°44'0 0.0
2018-Jun-09 06:29N 45°33' E 013°44'0 0.0
2018-Jun-09 05:56N 45°33' E 013°44'0 0.0
2018-Jun-09 05:26N 45°33' E 013°44'0 0.0
2018-Jun-09 04:56N 45°33' E 013°44'0 0.3
2018-Jun-09 04:30N 45°33' E 013°44'2 3.8
2018-Jun-09 04:00N 45°34' E 013°41'4 7.0
2018-Jun-09 03:30N 45°34' E 013°36'4 7.8
2018-Jun-09 03:00N 45°34' E 013°31'5 9.2
2018-Jun-09 02:30N 45°31' E 013°25'4 8.4
2018-Jun-09 02:00N 45°29' E 013°20'4 8.2
2018-Jun-09 01:30N 45°26' E 013°16'4 8.1
2018-Jun-09 01:00N 45°23' E 013°13'4 8.1
2018-Jun-09 00:30N 45°19' E 013°13'4 8.1
2018-Jun-09 00:00N 45°15' E 013°13'4 8.0
2018-Jun-08 23:30N 45°11' E 013°14'4 7.9
2018-Jun-08 23:00N 45°07' E 013°15'4 8.0
2018-Jun-08 22:30N 45°03' E 013°16'4 8.0
2018-Jun-08 22:00N 44°60' E 013°19'4 8.1
2018-Jun-08 21:30N 44°56' E 013°23'4 8.4
2018-Jun-08 21:00N 44°53' E 013°26'4 8.2
2018-Jun-08 20:30N 44°49' E 013°29'4 7.8
2018-Jun-08 20:00N 44°46' E 013°32'4 8.3
2018-Jun-08 19:30N 44°42' E 013°35'4 8.3
2018-Jun-08 18:59N 44°39' E 013°38'4 8.3
2018-Jun-08 18:30N 44°35' E 013°41'4 8.1
2018-Jun-08 18:00N 44°32' E 013°44'4 8.6
2018-Jun-08 17:30N 44°28' E 013°47'4 8.9
2018-Jun-08 17:00N 44°25' E 013°51'4 8.7
2018-Jun-08 16:30N 44°21' E 013°54'4 8.9
2018-Jun-08 16:00N 44°17' E 013°58'4 9.0
2018-Jun-08 15:30N 44°14' E 014°01'4 8.9
2018-Jun-08 15:00N 44°10' E 014°05'4 8.7
2018-Jun-08 14:30N 44°06' E 014°08'4 8.9
2018-Jun-08 14:00N 44°03' E 014°13'  
Track history (hours):
 
Tides and Currents Weather Stations Pressure Air Temp Water Temp Dewpoint Dewpoint Depression Visibility Wind Speed Wind Dir Waves Ship Positions

Celebrity Mercury

Last reported at 2018-Jun-18 06:16 UTC. Time now 2018-Jun-22 07:42 UTC.
Position N 44°09' E 013°59'.

Length 264 m; draft 8.5 m.

Type: Ship. MMSI: 249053000.

Date/timePositionNaut miles runAvg speedWind from/ knotsBaromVisibWave heightAir tempDewpointWater temp
2018-Jun-18 06:16N 44°09' E 013°59'513.1
2018-Jun-18 05:55N 44°13' E 013°56'2413.2
2018-Jun-18 04:04N 44°34' E 013°37'313.6
2018-Jun-18 03:52N 44°36' E 013°35'513.5
2018-Jun-18 03:30N 44°40' E 013°31'713.5
2018-Jun-18 03:00N 44°46' E 013°26'713.5
2018-Jun-18 02:30N 44°51' E 013°21'713.5
2018-Jun-18 02:00N 44°57' E 013°15'713.5
2018-Jun-18 01:30N 45°02' E 013°10'713.3
2018-Jun-18 01:00N 45°08' E 013°04'713.3
2018-Jun-18 00:30N 45°14' E 013°02'713.1
2018-Jun-18 00:00N 45°20' E 012°60'611.7
2018-Jun-17 23:30N 45°26' E 013°04'713.0
2018-Jun-17 23:00N 45°30' E 013°11'713.0
2018-Jun-17 22:30N 45°34' E 013°18'712.9
2018-Jun-17 22:00N 45°36' E 013°27'612.5
2018-Jun-17 21:30N 45°38' E 013°35'612.0
2018-Jun-17 21:00N 45°39' E 013°44'2 0.9
2018-Jun-17 19:15N 45°39' E 013°46'0 0.0
2018-Jun-17 18:51N 45°39' E 013°46'0 0.0
2018-Jun-17 18:27N 45°39' E 013°46'0 0.0
2018-Jun-17 18:00N 45°39' E 013°46'0 0.0
2018-Jun-17 17:30N 45°39' E 013°46'0 0.0
2018-Jun-17 02:41N 45°39' E 013°46'0 0.0
2018-Jun-17 02:29N 45°39' E 013°46'0 0.1
2018-Jun-17 02:00N 45°39' E 013°46'2 4.7
2018-Jun-17 01:30N 45°39' E 013°43'713.9
2018-Jun-17 01:01N 45°36' E 013°34'917.4
2018-Jun-17 00:30N 45°31' E 013°23'917.4
2018-Jun-17 00:01N 45°25' E 013°14'816.0
2018-Jun-16 23:31N 45°17' E 013°11'918.1
2018-Jun-16 23:01N 45°09' E 013°15'918.4
2018-Jun-16 22:31N 45°02' E 013°23'918.2
2018-Jun-16 22:00N 44°54' E 013°32'918.1
2018-Jun-16 21:31N 44°48' E 013°40'917.9
2018-Jun-16 21:01N 44°41' E 013°48'917.7
2018-Jun-16 20:31N 44°35' E 013°57'918.0
2018-Jun-16 20:00N 44°29' E 014°07'  
2018-Jun-11 07:54N 43°33' E 014°43'1717.3
2018-Jun-11 06:54N 43°46' E 014°27'716.3
2018-Jun-11 06:28N 43°51' E 014°21'816.1
2018-Jun-11 06:00N 43°57' E 014°14'816.0
2018-Jun-11 05:30N 44°03' E 014°06'816.2
2018-Jun-11 05:00N 44°09' E 013°59'816.3
2018-Jun-11 04:30N 44°16' E 013°52'816.2
2018-Jun-11 04:00N 44°22' E 013°46'816.2
2018-Jun-11 03:30N 44°29' E 013°39'816.1
2018-Jun-11 03:00N 44°36' E 013°34'816.2
2018-Jun-11 02:30N 44°43' E 013°27'815.7
2018-Jun-11 02:00N 44°50' E 013°23'816.1
2018-Jun-11 01:30N 44°56' E 013°16'816.2
2018-Jun-11 01:00N 45°03' E 013°09'816.0
2018-Jun-11 00:30N 45°10' E 013°03'816.1
2018-Jun-11 00:00N 45°17' E 013°00'714.6
2018-Jun-10 23:30N 45°25' E 013°01'815.5
2018-Jun-10 23:00N 45°29' E 013°10'815.4
2018-Jun-10 22:30N 45°34' E 013°19'815.7
2018-Jun-10 22:00N 45°37' E 013°29'815.7
2018-Jun-10 21:30N 45°39' E 013°40'4 8.3
2018-Jun-10 21:00N 45°39' E 013°46'0 0.0
2018-Jun-09 23:53N 45°39' E 013°46'0 0.0
2018-Jun-09 23:29N 45°39' E 013°46'0 0.0
2018-Jun-09 23:00N 45°39' E 013°46'1 1.9
2018-Jun-09 22:30N 45°39' E 013°45'4 7.8
2018-Jun-09 22:00N 45°39' E 013°39'5 9.7
2018-Jun-09 21:30N 45°34' E 013°41'2 0.1
2018-Jun-09 07:38N 45°33' E 013°44'0 0.0
2018-Jun-09 07:26N 45°33' E 013°44'0 0.0
2018-Jun-09 06:56N 45°33' E 013°44'0 0.0
2018-Jun-09 06:29N 45°33' E 013°44'0 0.0
2018-Jun-09 05:56N 45°33' E 013°44'0 0.0
2018-Jun-09 05:26N 45°33' E 013°44'0 0.0
2018-Jun-09 04:56N 45°33' E 013°44'0 0.3
2018-Jun-09 04:30N 45°33' E 013°44'2 3.8
2018-Jun-09 04:00N 45°34' E 013°41'4 7.0
2018-Jun-09 03:30N 45°34' E 013°36'4 7.8
2018-Jun-09 03:00N 45°34' E 013°31'5 9.2
2018-Jun-09 02:30N 45°31' E 013°25'4 8.4
2018-Jun-09 02:00N 45°29' E 013°20'4 8.2
2018-Jun-09 01:30N 45°26' E 013°16'4 8.1
2018-Jun-09 01:00N 45°23' E 013°13'4 8.1
2018-Jun-09 00:30N 45°19' E 013°13'4 8.1
2018-Jun-09 00:00N 45°15' E 013°13'4 8.0
2018-Jun-08 23:30N 45°11' E 013°14'4 7.9
2018-Jun-08 23:00N 45°07' E 013°15'4 8.0
2018-Jun-08 22:30N 45°03' E 013°16'4 8.0
2018-Jun-08 22:00N 44°60' E 013°19'4 8.1
2018-Jun-08 21:30N 44°56' E 013°23'4 8.4
2018-Jun-08 21:00N 44°53' E 013°26'4 8.2
2018-Jun-08 20:30N 44°49' E 013°29'4 7.8
2018-Jun-08 20:00N 44°46' E 013°32'4 8.3
2018-Jun-08 19:30N 44°42' E 013°35'4 8.3
2018-Jun-08 18:59N 44°39' E 013°38'4 8.3
2018-Jun-08 18:30N 44°35' E 013°41'4 8.1
2018-Jun-08 18:00N 44°32' E 013°44'4 8.6
2018-Jun-08 17:30N 44°28' E 013°47'4 8.9
2018-Jun-08 17:00N 44°25' E 013°51'4 8.7
2018-Jun-08 16:30N 44°21' E 013°54'4 8.9
2018-Jun-08 16:00N 44°17' E 013°58'4 9.0
2018-Jun-08 15:30N 44°14' E 014°01'4 8.9
2018-Jun-08 15:00N 44°10' E 014°05'4 8.7
2018-Jun-08 14:30N 44°06' E 014°08'4 8.9
2018-Jun-08 14:00N 44°03' E 014°13'  

Dump ship's entire track history